Time;durP1;ratioP1;P1;durP2;ratioP2;P2;SDS_P1;SDS_P2;PMS_P1;PMS_P2;Temp;Humidity;BMP_temperature;BMP_pressure;BME280_temperature;BME280_humidity;BME280_pressure;Samples;Min_cycle;Max_cycle;Signal;HPM_P1;HPM_P2
2023/01/07 00:01:33;;;;;;;;;;;;;;;4.36;100.00;101023.81;5568177;32;34413;-69
2023/01/07 00:04:44;;;;;;;;;;;;;;;4.43;100.00;101016.31;5541687;32;33173;-70
2023/01/07 00:07:50;;;;;;;;;;;;;;;4.51;100.00;101022.69;5554166;32;32701;-70
2023/01/07 00:10:56;;;;;;;;;;;;;;;4.68;100.00;101029.34;5567961;32;34930;-70
2023/01/07 00:14:04;;;;;;;;;;;;;;;4.92;100.00;101030.13;5568124;32;34285;-70
2023/01/07 00:17:11;;;;;;;;;;;;;;;5.01;100.00;101023.31;5568092;32;34355;-69
2023/01/07 00:20:21;;;;;;;;;;;;;;;5.14;100.00;101034.56;5566776;32;34210;-70
2023/01/07 00:23:32;;;;;;;;;;;;;;;5.19;100.00;101038.53;5554990;32;34737;-70
2023/01/07 00:26:41;;;;;;;;;;;;;;;5.28;100.00;101039.63;5568153;32;34044;-70
2023/01/07 00:29:50;;;;;;;;;;;;;;;5.34;100.00;101038.31;5553513;32;33225;-70
2023/01/07 00:33:04;;;;;;;;;;;;;;;5.41;100.00;101044.78;5567870;32;34512;-70
2023/01/07 00:36:10;;;;;;;;;;;;;;;5.40;100.00;101040.47;5567870;32;34690;-70
2023/01/07 00:39:20;;;;;;;;;;;;;;;5.37;100.00;101041.56;5555065;32;34834;-70
2023/01/07 00:45:48;;;;;;;;;;;;;;;5.46;100.00;101040.00;5568243;32;34171;-70
2023/01/07 00:48:52;;;;;;;;;;;;;;;5.57;100.00;101040.00;5541032;32;33489;-70
2023/01/07 00:51:57;;;;;;;;;;;;;;;5.52;100.00;101039.50;5554297;32;34712;-68
2023/01/07 00:55:06;;;;;;;;;;;;;;;5.55;100.00;101044.56;5554519;32;34630;-68
2023/01/07 00:58:16;;;;;;;;;;;;;;;5.64;100.00;101044.69;5567621;32;34562;-68
2023/01/07 01:01:20;;;;;;;;;;;;;;;5.67;100.00;101048.84;5567355;32;34840;-68
2023/01/07 01:04:25;;;;;;;;;;;;;;;5.64;100.00;101047.31;5567162;32;35072;-69
2023/01/07 01:07:33;;;;;;;;;;;;;;;5.72;100.00;101054.59;5567093;32;34910;-69
2023/01/07 01:10:38;;;;;;;;;;;;;;;5.69;100.00;101053.06;5567465;32;33822;-69
2023/01/07 01:13:45;;;;;;;;;;;;;;;5.60;100.00;101052.94;5566746;32;34172;-69
2023/01/07 01:16:53;;;;;;;;;;;;;;;5.64;100.00;101049.94;5567474;32;34173;-69
2023/01/07 01:20:00;;;;;;;;;;;;;;;5.56;100.00;101047.06;5567648;32;34255;-69
2023/01/07 01:23:05;;;;;;;;;;;;;;;5.51;100.00;101048.38;5566627;32;34720;-70
2023/01/07 01:26:12;;;;;;;;;;;;;;;5.54;100.00;101051.59;5566776;32;34121;-70
2023/01/07 01:29:19;;;;;;;;;;;;;;;5.57;100.00;101046.09;5567479;32;34236;-69
2023/01/07 01:32:23;;;;;;;;;;;;;;;5.54;100.00;101045.50;5566635;32;34992;-70
2023/01/07 01:35:31;;;;;;;;;;;;;;;5.52;100.00;101042.12;5567277;32;34470;-70
2023/01/07 01:38:39;;;;;;;;;;;;;;;5.56;100.00;101035.72;5567417;32;34274;-71
2023/01/07 01:41:46;;;;;;;;;;;;;;;5.64;100.00;101038.56;5567187;32;34325;-70
2023/01/07 01:44:56;;;;;;;;;;;;;;;5.57;100.00;101042.62;5567395;32;34986;-69
2023/01/07 01:48:04;;;;;;;;;;;;;;;5.62;100.00;101043.09;5567230;32;34380;-69
2023/01/07 01:51:10;;;;;;;;;;;;;;;5.62;100.00;101054.47;5567235;32;34694;-69
2023/01/07 01:54:18;;;;;;;;;;;;;;;5.67;100.00;101047.06;5567104;32;34300;-69
2023/01/07 01:57:28;;;;;;;;;;;;;;;5.67;100.00;101033.87;5553870;32;34194;-70
2023/01/07 02:00:36;;;;;;;;;;;;;;;5.66;100.00;101026.13;5540155;32;34486;-70
2023/01/07 02:03:44;;;;;;;;;;;;;;;5.56;100.00;101025.19;5552807;32;34229;-69
2023/01/07 02:06:56;;;;;;;;;;;;;;;5.45;100.00;101022.53;5553418;32;34549;-70
2023/01/07 02:10:11;;;;;;;;;;;;;;;5.49;100.00;101019.53;5553392;32;34922;-70
2023/01/07 02:13:19;;;;;;;;;;;;;;;5.39;100.00;101015.94;5566854;32;34659;-70
2023/01/07 02:16:34;;;;;;;;;;;;;;;5.30;100.00;101007.94;5566921;32;34321;-70
2023/01/07 02:19:40;;;;;;;;;;;;;;;5.17;100.00;101000.16;5566644;32;34919;-70
2023/01/07 02:22:45;;;;;;;;;;;;;;;5.12;100.00;101002.31;5565500;32;35091;-70
2023/01/07 02:26:07;;;;;;;;;;;;;;;4.92;100.00;100995.09;5551359;32;34576;-70
2023/01/07 02:29:35;;;;;;;;;;;;;;;4.90;100.00;100992.56;5550587;32;33714;-70
2023/01/07 02:32:44;;;;;;;;;;;;;;;4.68;100.00;101000.41;5566346;32;34661;-70
2023/01/07 02:36:08;;;;;;;;;;;;;;;4.67;100.00;100993.47;5566074;32;34420;-69
2023/01/07 02:39:34;;;;;;;;;;;;;;;4.61;100.00;100996.56;5564125;32;34471;-69
2023/01/07 02:42:47;;;;;;;;;;;;;;;4.36;100.00;100992.28;5551271;32;34894;-69
2023/01/07 02:46:12;;;;;;;;;;;;;;;4.48;100.00;100999.28;5554067;32;34746;-70
2023/01/07 02:49:19;;;;;;;;;;;;;;;4.34;100.00;101002.09;5568288;32;34249;-70
2023/01/07 02:52:28;;;;;;;;;;;;;;;4.28;100.00;101000.75;5568521;32;34588;-70
2023/01/07 02:55:51;;;;;;;;;;;;;;;4.29;100.00;101002.44;5568950;32;33998;-70
2023/01/07 02:59:20;;;;;;;;;;;;;;;4.36;100.00;101002.78;5568750;32;34931;-70
2023/01/07 03:02:32;;;;;;;;;;;;;;;4.21;100.00;101003.94;5568797;32;34692;-70
2023/01/07 03:05:58;;;;;;;;;;;;;;;4.38;100.00;100993.88;5555618;32;34391;-70
2023/01/07 03:09:15;;;;;;;;;;;;;;;4.40;100.00;100992.91;5568799;32;34729;-70
2023/01/07 03:12:34;;;;;;;;;;;;;;;4.19;100.00;100993.53;5555356;32;33948;-70
2023/01/07 03:15:40;;;;;;;;;;;;;;;4.29;100.00;100997.16;5555130;32;34948;-70
2023/01/07 03:18:51;;;;;;;;;;;;;;;4.13;100.00;100993.13;5555414;32;34428;-70
2023/01/07 03:22:01;;;;;;;;;;;;;;;4.12;100.00;100991.47;5566805;32;34877;-70
2023/01/07 03:25:10;;;;;;;;;;;;;;;4.02;100.00;100993.91;5555772;32;34237;-70
2023/01/07 03:28:23;;;;;;;;;;;;;;;3.85;100.00;100995.12;5568566;31;34264;-70
2023/01/07 03:31:33;;;;;;;;;;;;;;;3.68;100.00;100998.09;5568550;32;34286;-70
2023/01/07 03:34:41;;;;;;;;;;;;;;;3.68;100.00;100987.62;5568571;32;34397;-70
2023/01/07 03:37:52;;;;;;;;;;;;;;;3.66;100.00;100997.41;5555452;32;34275;-70
2023/01/07 03:40:58;;;;;;;;;;;;;;;3.53;100.00;100998.38;5568575;32;34223;-70
2023/01/07 03:44:05;;;;;;;;;;;;;;;3.39;100.00;100986.19;5568248;32;34148;-70
2023/01/07 03:47:11;;;;;;;;;;;;;;;3.36;100.00;100989.03;5568535;32;34819;-71
2023/01/07 03:50:21;;;;;;;;;;;;;;;3.26;100.00;100991.47;5568448;32;34940;-69
2023/01/07 03:53:29;;;;;;;;;;;;;;;3.19;100.00;100979.75;5554428;32;33369;-70
2023/01/07 03:56:38;;;;;;;;;;;;;;;3.27;100.00;100973.97;5554307;32;34438;-70
2023/01/07 03:59:44;;;;;;;;;;;;;;;3.17;100.00;100970.28;5554250;32;33742;-70
2023/01/07 04:02:52;;;;;;;;;;;;;;;3.14;100.00;100976.59;5555094;32;34637;-70
2023/01/07 04:06:01;;;;;;;;;;;;;;;3.09;100.00;100983.09;5568613;32;34948;-70
2023/01/07 04:09:08;;;;;;;;;;;;;;;3.01;100.00;100984.44;5506827;32;2014839;-70
2023/01/07 04:12:16;;;;;;;;;;;;;;;3.00;100.00;100993.25;5568178;32;34722;-70
2023/01/07 04:15:22;;;;;;;;;;;;;;;2.93;100.00;100988.53;5566136;32;34314;-70
2023/01/07 04:18:29;;;;;;;;;;;;;;;2.92;100.00;100989.47;5568214;32;34182;-70
2023/01/07 04:21:35;;;;;;;;;;;;;;;2.99;100.00;100988.12;5568140;32;34347;-71
2023/01/07 04:24:43;;;;;;;;;;;;;;;2.91;100.00;100991.25;5568248;32;34110;-70
2023/01/07 04:27:51;;;;;;;;;;;;;;;2.88;100.00;100985.41;5568190;32;34253;-70
2023/01/07 04:30:59;;;;;;;;;;;;;;;2.80;100.00;100980.69;5568127;32;34236;-70
2023/01/07 04:34:08;;;;;;;;;;;;;;;2.75;100.00;100979.31;5568343;32;34915;-70
2023/01/07 04:37:15;;;;;;;;;;;;;;;2.74;100.00;100983.72;5568033;32;34239;-70
2023/01/07 04:40:23;;;;;;;;;;;;;;;2.75;100.00;100998.50;5567284;32;34050;-70
2023/01/07 04:43:39;;;;;;;;;;;;;;;2.71;100.00;100997.00;5567997;32;34265;-70
2023/01/07 04:46:48;;;;;;;;;;;;;;;2.60;100.00;100995.12;5567070;32;34318;-70
2023/01/07 04:49:57;;;;;;;;;;;;;;;2.56;100.00;100998.03;5568028;32;35262;-71
2023/01/07 04:53:05;;;;;;;;;;;;;;;2.51;100.00;100993.13;5567088;32;34393;-71
2023/01/07 04:56:12;;;;;;;;;;;;;;;2.46;100.00;100999.59;5567050;32;34777;-69
2023/01/07 04:59:22;;;;;;;;;;;;;;;2.43;100.00;100991.91;5566992;32;34992;-70
2023/01/07 05:02:34;;;;;;;;;;;;;;;2.41;100.00;100991.19;5567779;32;34475;-70
2023/01/07 05:05:42;;;;;;;;;;;;;;;2.42;100.00;100996.31;5567751;32;34293;-70
2023/01/07 05:08:54;;;;;;;;;;;;;;;2.43;100.00;100986.69;5567728;32;34066;-69
2023/01/07 05:12:01;;;;;;;;;;;;;;;2.43;100.00;100992.75;5566584;32;35326;-70
2023/01/07 05:15:10;;;;;;;;;;;;;;;2.38;100.00;101000.06;5566909;32;34907;-70
2023/01/07 05:18:16;;;;;;;;;;;;;;;2.33;100.00;101006.53;5566747;32;34059;-70
2023/01/07 05:21:24;;;;;;;;;;;;;;;2.37;100.00;101000.19;5567643;32;34825;-70
2023/01/07 05:24:31;;;;;;;;;;;;;;;2.32;100.00;101002.28;5567422;32;34244;-70
2023/01/07 05:27:39;;;;;;;;;;;;;;;2.33;100.00;101001.31;5566473;32;34892;-70
2023/01/07 05:30:46;;;;;;;;;;;;;;;2.42;100.00;100995.50;5566495;32;34201;-70
2023/01/07 05:33:55;;;;;;;;;;;;;;;2.36;100.00;100993.28;5567574;32;34028;-70
2023/01/07 05:37:00;;;;;;;;;;;;;;;2.33;100.00;100989.06;5567462;32;34759;-70
2023/01/07 05:40:10;;;;;;;;;;;;;;;2.26;100.00;100987.78;5566171;32;32672;-70
2023/01/07 05:43:20;;;;;;;;;;;;;;;2.24;100.00;100988.81;5567143;32;34378;-70
2023/01/07 05:46:28;;;;;;;;;;;;;;;2.26;100.00;101000.03;5567217;32;33773;-71
2023/01/07 05:49:34;;;;;;;;;;;;;;;2.38;100.00;101004.47;5566063;32;34453;-70
2023/01/07 05:52:42;;;;;;;;;;;;;;;2.38;100.00;101002.69;5566617;32;34195;-71
2023/01/07 05:55:56;;;;;;;;;;;;;;;2.33;100.00;100999.53;5567112;32;34790;-70
2023/01/07 05:59:05;;;;;;;;;;;;;;;2.35;100.00;101010.75;5567022;32;34963;-70
2023/01/07 06:02:10;;;;;;;;;;;;;;;2.43;100.00;101007.63;5566956;32;34423;-70
2023/01/07 06:05:17;;;;;;;;;;;;;;;2.39;100.00;101003.53;5566040;32;33968;-70
2023/01/07 06:08:25;;;;;;;;;;;;;;;2.31;100.00;100995.34;5565930;32;34938;-70
2023/01/07 06:11:32;;;;;;;;;;;;;;;2.28;100.00;100999.00;5565764;32;34284;-71
2023/01/07 06:14:41;;;;;;;;;;;;;;;2.25;100.00;101011.44;5566737;32;34665;-71
2023/01/07 06:17:49;;;;;;;;;;;;;;;2.26;100.00;101013.13;5566584;32;34300;-71
2023/01/07 06:20:54;;;;;;;;;;;;;;;2.19;100.00;101013.53;5568998;32;34804;-71
2023/01/07 06:24:01;;;;;;;;;;;;;;;2.15;100.00;101009.44;5569385;32;34157;-71
2023/01/07 06:27:08;;;;;;;;;;;;;;;2.17;100.00;100999.72;5569380;32;34613;-71
2023/01/07 06:30:16;;;;;;;;;;;;;;;2.17;100.00;100998.88;5569092;32;34134;-71
2023/01/07 06:33:24;;;;;;;;;;;;;;;2.15;100.00;101001.56;5569096;32;33783;-69
2023/01/07 06:36:35;;;;;;;;;;;;;;;2.13;100.00;100998.19;5568863;32;34193;-69
2023/01/07 06:39:41;;;;;;;;;;;;;;;2.12;100.00;101004.41;5568453;32;34791;-70
2023/01/07 06:42:54;;;;;;;;;;;;;;;2.09;100.00;101001.12;5569048;32;34811;-72
2023/01/07 06:46:00;;;;;;;;;;;;;;;2.11;100.00;101009.72;5567902;32;34926;-71
2023/01/07 06:49:08;;;;;;;;;;;;;;;2.15;100.00;101005.97;5567993;32;33557;-70
2023/01/07 06:52:14;;;;;;;;;;;;;;;2.21;100.00;101002.97;5554811;32;33215;-70
2023/01/07 06:55:22;;;;;;;;;;;;;;;2.29;100.00;101010.31;5554817;32;32998;-72
2023/01/07 06:58:31;;;;;;;;;;;;;;;2.53;100.00;101014.78;5554276;32;34180;-71
2023/01/07 07:01:38;;;;;;;;;;;;;;;2.68;100.00;101009.47;5554950;32;34161;-71
2023/01/07 07:04:48;;;;;;;;;;;;;;;2.62;100.00;101022.03;5555453;32;34482;-71
2023/01/07 07:07:56;;;;;;;;;;;;;;;2.53;100.00;101012.16;5568736;32;34306;-71
2023/01/07 07:11:02;;;;;;;;;;;;;;;2.55;100.00;101022.56;5554531;32;33646;-71
2023/01/07 07:14:09;;;;;;;;;;;;;;;2.57;100.00;101025.88;5542333;32;32417;-71
2023/01/07 07:17:18;;;;;;;;;;;;;;;2.54;100.00;101029.56;5554777;32;33662;-70
2023/01/07 07:20:26;;;;;;;;;;;;;;;2.57;100.00;101018.03;5541963;32;33977;-73
2023/01/07 07:23:34;;;;;;;;;;;;;;;2.60;100.00;101031.78;5568397;32;34447;-72
2023/01/07 07:26:42;;;;;;;;;;;;;;;2.61;100.00;101027.37;5542189;32;33127;-71
2023/01/07 07:29:50;;;;;;;;;;;;;;;2.69;100.00;101027.72;5554133;32;33872;-71
2023/01/07 07:33:03;;;;;;;;;;;;;;;2.80;100.00;101032.25;5542015;32;34357;-71
2023/01/07 07:36:09;;;;;;;;;;;;;;;2.89;100.00;101039.50;5541554;32;35165;-70
2023/01/07 07:39:19;;;;;;;;;;;;;;;2.95;100.00;101036.47;5568389;32;34829;-71
2023/01/07 07:42:25;;;;;;;;;;;;;;;2.96;100.00;101036.34;5541480;32;34743;-71
2023/01/07 07:45:33;;;;;;;;;;;;;;;2.96;100.00;101046.81;5567890;32;34351;-70
2023/01/07 07:48:41;;;;;;;;;;;;;;;3.11;100.00;101041.50;5554023;32;34711;-71
2023/01/07 07:51:53;;;;;;;;;;;;;;;3.16;100.00;101042.84;5553797;32;34293;-69
2023/01/07 07:55:01;;;;;;;;;;;;;;;3.29;100.00;101051.56;5540469;32;33246;-72
2023/01/07 07:58:31;;;;;;;;;;;;;;;3.45;100.00;101051.34;5568242;32;33732;-71
2023/01/07 08:01:40;;;;;;;;;;;;;;;3.61;100.00;101049.34;5554078;32;33191;-72
2023/01/07 08:04:49;;;;;;;;;;;;;;;3.75;100.00;101045.75;5553393;32;34005;-72
2023/01/07 08:07:57;;;;;;;;;;;;;;;3.92;100.00;101048.03;5563507;32;33546;-71
2023/01/07 08:11:06;;;;;;;;;;;;;;;4.06;100.00;101042.66;5554636;32;34232;-72
2023/01/07 08:14:14;;;;;;;;;;;;;;;4.13;100.00;101033.37;5541181;32;34236;-72
2023/01/07 08:17:22;;;;;;;;;;;;;;;4.25;100.00;101040.37;5553746;32;33180;-71
2023/01/07 08:20:37;;;;;;;;;;;;;;;4.31;100.00;101044.31;5559485;32;34105;-72
2023/01/07 08:23:46;;;;;;;;;;;;;;;4.48;100.00;101045.72;5547607;32;33971;-72
2023/01/07 08:26:56;;;;;;;;;;;;;;;4.55;100.00;101037.25;5548322;32;35468;-72
2023/01/07 08:30:04;;;;;;;;;;;;;;;4.53;100.00;101036.56;5555569;32;34044;-71
2023/01/07 08:33:11;;;;;;;;;;;;;;;4.63;100.00;101032.31;5566951;32;34268;-72
2023/01/07 08:36:19;;;;;;;;;;;;;;;4.71;100.00;101034.34;5554235;32;33350;-73
2023/01/07 08:39:28;;;;;;;;;;;;;;;4.77;100.00;101018.97;5566702;32;34096;-72
2023/01/07 08:42:37;;;;;;;;;;;;;;;4.72;100.00;101026.34;5553786;32;33818;-72
2023/01/07 08:45:48;;;;;;;;;;;;;;;4.87;100.00;101026.16;5566994;32;34280;-72
2023/01/07 08:48:56;;;;;;;;;;;;;;;5.06;100.00;101019.41;5556463;32;34339;-72
2023/01/07 08:52:03;;;;;;;;;;;;;;;5.28;100.00;101028.28;5547384;32;33868;-71
2023/01/07 08:55:10;;;;;;;;;;;;;;;5.50;100.00;101017.75;5534310;32;32966;-72
2023/01/07 08:58:16;;;;;;;;;;;;;;;5.76;100.00;101013.09;5547000;32;34594;-72
2023/01/07 09:01:26;;;;;;;;;;;;;;;5.97;100.00;101019.28;5547781;32;34266;-71
2023/01/07 09:04:33;;;;;;;;;;;;;;;6.25;100.00;101015.25;5545636;32;34480;-72
2023/01/07 09:07:42;;;;;;;;;;;;;;;6.37;100.00;101022.19;5547417;32;33941;-72
2023/01/07 09:10:50;;;;;;;;;;;;;;;6.52;100.00;101019.13;5546271;32;34271;-72
2023/01/07 09:13:56;;;;;;;;;;;;;;;6.66;100.00;101022.44;5547546;32;34796;-70
2023/01/07 09:17:03;;;;;;;;;;;;;;;6.77;100.00;101019.75;5547817;32;34866;-72
2023/01/07 09:20:10;;;;;;;;;;;;;;;6.86;100.00;101027.72;5547010;32;33235;-71
2023/01/07 09:23:21;;;;;;;;;;;;;;;6.86;100.00;101021.62;5546906;32;34248;-71
2023/01/07 09:26:31;;;;;;;;;;;;;;;6.96;100.00;101017.25;5546740;32;32816;-71
2023/01/07 09:29:41;;;;;;;;;;;;;;;7.06;100.00;101015.50;5547713;32;34211;-71
2023/01/07 09:32:50;;;;;;;;;;;;;;;7.25;100.00;101015.63;5547877;32;34232;-71
2023/01/07 09:35:59;;;;;;;;;;;;;;;7.52;100.00;101016.84;5546577;32;35221;-71
2023/01/07 09:39:09;;;;;;;;;;;;;;;7.62;100.00;101009.78;5546352;32;33584;-71
2023/01/07 09:42:20;;;;;;;;;;;;;;;7.82;100.00;101007.09;5546622;32;34333;-71
2023/01/07 09:45:31;;;;;;;;;;;;;;;7.95;100.00;101003.34;5547388;32;34808;-71
2023/01/07 09:48:43;;;;;;;;;;;;;;;7.98;100.00;101008.38;5547148;32;34563;-71
2023/01/07 09:51:55;;;;;;;;;;;;;;;7.92;100.00;100996.53;5547191;32;33851;-71
2023/01/07 09:55:13;;;;;;;;;;;;;;;7.84;100.00;100997.19;5545697;32;34761;-71
2023/01/07 09:58:21;;;;;;;;;;;;;;;7.82;100.00;100990.41;5541627;32;34067;-71
2023/01/07 10:01:37;;;;;;;;;;;;;;;7.84;100.00;100996.41;5551611;32;34473;-71
2023/01/07 10:04:49;;;;;;;;;;;;;;;7.81;100.00;100986.91;5549394;32;34318;-71
2023/01/07 10:07:58;;;;;;;;;;;;;;;7.80;100.00;100984.41;5537439;32;33188;-71
2023/01/07 10:11:31;;;;;;;;;;;;;;;7.84;100.00;100981.34;5547055;32;35255;-71
2023/01/07 10:14:39;;;;;;;;;;;;;;;7.84;100.00;100976.06;5549632;32;34676;-73
2023/01/07 10:17:49;;;;;;;;;;;;;;;7.83;100.00;100977.06;5560044;32;34069;-73
2023/01/07 10:21:00;;;;;;;;;;;;;;;7.89;100.00;100972.22;5546449;32;32550;-70
2023/01/07 10:24:12;;;;;;;;;;;;;;;7.96;100.00;100965.41;5547938;32;34443;-72
2023/01/07 10:27:26;;;;;;;;;;;;;;;8.04;100.00;100963.72;5545657;32;34253;-70
2023/01/07 10:30:37;;;;;;;;;;;;;;;8.09;100.00;100965.97;5546126;32;34725;-72
2023/01/07 10:33:46;;;;;;;;;;;;;;;8.22;100.00;100958.63;5535407;32;34017;-72
2023/01/07 10:37:00;;;;;;;;;;;;;;;8.47;100.00;100955.44;5546384;32;34274;-72
2023/01/07 10:40:11;;;;;;;;;;;;;;;8.57;100.00;100958.06;5545092;32;34291;-72
2023/01/07 10:43:37;;;;;;;;;;;;;;;8.62;100.00;100951.38;5552570;32;34178;-72
2023/01/07 10:47:01;;;;;;;;;;;;;;;8.57;100.00;100945.69;5565715;32;34164;-72
2023/01/07 10:50:08;;;;;;;;;;;;;;;8.58;100.00;100943.88;5565979;32;34159;-72
2023/01/07 10:53:33;;;;;;;;;;;;;;;8.64;100.00;100935.37;5552237;32;33005;-72
2023/01/07 10:56:49;;;;;;;;;;;;;;;8.63;100.00;100933.72;5555023;32;33181;-72
2023/01/07 10:59:57;;;;;;;;;;;;;;;8.67;100.00;100937.72;5560705;32;34924;-71
2023/01/07 11:03:02;;;;;;;;;;;;;;;8.71;100.00;100928.56;5544325;32;34846;-73
2023/01/07 11:06:11;;;;;;;;;;;;;;;8.72;100.00;100927.56;5546061;32;34802;-72
2023/01/07 11:09:26;;;;;;;;;;;;;;;8.75;100.00;100924.66;5548267;32;34991;-71
2023/01/07 11:12:34;;;;;;;;;;;;;;;8.80;100.00;100921.56;5568474;32;34881;-71
2023/01/07 11:15:45;;;;;;;;;;;;;;;8.88;100.00;100917.22;5559521;32;34852;-72
2023/01/07 11:19:05;;;;;;;;;;;;;;;9.08;100.00;100910.91;5567971;32;33888;-72
2023/01/07 11:22:26;;;;;;;;;;;;;;;9.20;100.00;100911.53;5567877;32;34713;-71
2023/01/07 11:25:31;;;;;;;;;;;;;;;9.21;100.00;100905.25;5568017;32;34866;-72
2023/01/07 11:28:41;;;;;;;;;;;;;;;9.32;100.00;100898.94;5541153;32;34039;-71
2023/01/07 11:31:48;;;;;;;;;;;;;;;9.33;100.00;100901.47;5567910;32;34227;-72
2023/01/07 11:34:58;;;;;;;;;;;;;;;9.37;100.00;100894.87;5554625;32;34512;-72
2023/01/07 11:38:23;;;;;;;;;;;;;;;9.35;100.00;100888.06;5568056;32;35064;-72
2023/01/07 11:41:30;;;;;;;;;;;;;;;9.31;100.00;100891.97;5554113;32;33469;-72
2023/01/07 11:44:38;;;;;;;;;;;;;;;9.32;100.00;100881.25;5568029;32;34336;-72
2023/01/07 11:47:55;;;;;;;;;;;;;;;9.40;100.00;100883.97;5540883;32;34185;-71
2023/01/07 11:51:11;;;;;;;;;;;;;;;9.58;100.00;100884.03;5553847;32;34671;-72
2023/01/07 11:54:19;;;;;;;;;;;;;;;9.56;100.00;100878.03;5551008;32;32956;-72
2023/01/07 11:57:25;;;;;;;;;;;;;;;9.70;100.00;100876.69;5564699;32;34225;-72
2023/01/07 12:00:31;;;;;;;;;;;;;;;9.83;100.00;100866.53;5566821;32;34188;-71
2023/01/07 12:03:43;;;;;;;;;;;;;;;9.85;100.00;100860.13;5567192;32;34404;-72
2023/01/07 12:06:53;;;;;;;;;;;;;;;9.79;100.00;100863.38;5565729;32;34698;-71
2023/01/07 12:10:00;;;;;;;;;;;;;;;9.82;100.00;100852.50;5552418;32;35544;-72
2023/01/07 12:13:15;;;;;;;;;;;;;;;9.86;100.00;100847.72;5567968;32;34661;-71
2023/01/07 12:16:26;;;;;;;;;;;;;;;10.03;100.00;100847.69;5556873;31;34106;-71
2023/01/07 12:19:42;;;;;;;;;;;;;;;10.53;100.00;100839.16;5574079;31;34371;-72
2023/01/07 12:23:32;;;;;;;;;;;;;;;11.02;100.00;100832.28;5587688;31;34903;-72
2023/01/07 12:27:13;;;;;;;;;;;;;;;11.33;100.00;100840.50;5500596;32;34239;-72
2023/01/07 12:30:22;;;;;;;;;;;;;;;11.68;100.00;100828.81;5462791;32;33920;-71
2023/01/07 12:33:43;;;;;;;;;;;;;;;11.95;100.00;100833.03;5507341;32;34376;-73
2023/01/07 12:37:00;;;;;;;;;;;;;;;11.86;100.00;100829.53;5494508;32;34148;-71
2023/01/07 12:40:14;;;;;;;;;;;;;;;11.99;100.00;100826.38;5482535;32;33916;-72
2023/01/07 12:43:25;;;;;;;;;;;;;;;12.13;100.00;100825.72;5477074;32;33224;-72
2023/01/07 12:46:35;;;;;;;;;;;;;;;12.13;100.00;100825.72;5475916;32;34178;-72
2023/01/07 12:49:42;;;;;;;;;;;;;;;11.98;100.00;100820.25;5475962;32;34298;-72
2023/01/07 12:52:50;;;;;;;;;;;;;;;12.26;100.00;100818.06;5488356;32;34701;-72
2023/01/07 12:55:58;;;;;;;;;;;;;;;12.55;99.23;100806.87;5496258;32;34338;-72
2023/01/07 12:59:11;;;;;;;;;;;;;;;12.69;95.62;100815.97;5544564;32;35309;-72
2023/01/07 13:02:37;;;;;;;;;;;;;;;12.40;97.52;100814.72;5541732;32;32916;-72
2023/01/07 13:05:49;;;;;;;;;;;;;;;12.13;99.72;100810.59;5565997;32;35241;-71
2023/01/07 13:09:01;;;;;;;;;;;;;;;11.72;100.00;100808.88;5566154;32;34835;-71
2023/01/07 13:12:46;;;;;;;;;;;;;;;11.51;100.00;100804.06;5553543;32;33601;-71
2023/01/07 13:15:52;;;;;;;;;;;;;;;11.26;100.00;100802.34;5553594;32;34268;-71
2023/01/07 13:18:56;;;;;;;;;;;;;;;11.22;100.00;100807.13;5542589;32;33207;-70
2023/01/07 13:22:03;;;;;;;;;;;;;;;11.06;100.00;100800.94;5566567;32;34982;-70
2023/01/07 13:25:15;;;;;;;;;;;;;;;11.10;100.00;100789.00;5552879;32;33852;-70
2023/01/07 13:28:42;;;;;;;;;;;;;;;11.07;100.00;100786.66;5565217;32;34675;-72
2023/01/07 13:32:04;;;;;;;;;;;;;;;10.97;100.00;100788.63;5566371;32;35024;-70
2023/01/07 13:35:30;;;;;;;;;;;;;;;10.95;100.00;100794.09;5565831;32;34202;-70
2023/01/07 13:38:46;;;;;;;;;;;;;;;11.04;100.00;100792.28;5565731;32;34200;-70
2023/01/07 13:42:01;;;;;;;;;;;;;;;11.16;100.00;100793.66;5566316;32;33927;-70
2023/01/07 13:45:10;;;;;;;;;;;;;;;11.31;100.00;100789.41;5565534;32;34396;-70
2023/01/07 13:48:22;;;;;;;;;;;;;;;11.28;100.00;100789.69;5565795;32;33694;-70
2023/01/07 13:51:30;;;;;;;;;;;;;;;11.24;100.00;100791.03;5566104;32;35040;-70
2023/01/07 13:54:47;;;;;;;;;;;;;;;11.18;100.00;100786.37;5562855;32;33974;-71
2023/01/07 13:57:53;;;;;;;;;;;;;;;11.11;100.00;100785.34;5566088;32;34169;-70
2023/01/07 14:01:03;;;;;;;;;;;;;;;10.94;100.00;100791.59;5553507;32;34084;-70
2023/01/07 14:04:21;;;;;;;;;;;;;;;10.72;100.00;100796.47;5566373;32;33835;-71
2023/01/07 14:07:29;;;;;;;;;;;;;;;10.48;100.00;100795.50;5553049;32;34465;-70
2023/01/07 14:10:36;;;;;;;;;;;;;;;10.42;100.00;100804.94;5552783;32;34272;-71
2023/01/07 14:13:45;;;;;;;;;;;;;;;10.20;100.00;100802.81;5566317;32;34812;-71
2023/01/07 14:17:03;;;;;;;;;;;;;;;10.08;100.00;100809.28;5552320;32;33658;-71
2023/01/07 14:20:14;;;;;;;;;;;;;;;9.92;100.00;100805.50;5566099;32;35152;-70
2023/01/07 14:23:28;;;;;;;;;;;;;;;9.74;100.00;100814.47;5539720;32;33293;-70
2023/01/07 14:26:47;;;;;;;;;;;;;;;9.62;100.00;100810.41;5552742;32;34419;-70
2023/01/07 14:29:53;;;;;;;;;;;;;;;9.49;100.00;100803.63;5552416;32;34320;-70
2023/01/07 14:33:15;;;;;;;;;;;;;;;9.28;100.00;100813.69;5553481;32;34312;-69
2023/01/07 14:36:19;;;;;;;;;;;;;;;9.04;100.00;100801.03;5552004;32;32922;-69
2023/01/07 14:39:38;;;;;;;;;;;;;;;8.85;100.00;100809.06;5566455;32;34671;-70
2023/01/07 14:42:45;;;;;;;;;;;;;;;8.86;100.00;100805.41;5542094;32;34909;-70
2023/01/07 14:45:51;;;;;;;;;;;;;;;8.75;100.00;100804.78;5557162;32;34346;-70
2023/01/07 14:49:02;;;;;;;;;;;;;;;8.51;100.00;100805.28;5568227;32;34752;-70
2023/01/07 14:52:15;;;;;;;;;;;;;;;8.33;100.00;100812.28;5550954;32;32354;-70
2023/01/07 14:55:24;;;;;;;;;;;;;;;8.16;100.00;100809.38;5567365;32;34407;-70
2023/01/07 14:58:35;;;;;;;;;;;;;;;8.08;100.00;100811.88;5566350;32;33128;-71
2023/01/07 15:01:41;;;;;;;;;;;;;;;7.98;100.00;100807.59;5568133;32;34570;-70
2023/01/07 15:04:56;;;;;;;;;;;;;;;7.81;100.00;100806.47;5567948;32;34133;-71
2023/01/07 15:18:26;;;;;;;;;;;;;;;7.34;100.00;100803.69;5553213;32;33381;-70
2023/01/07 15:21:50;;;;;;;;;;;;;;;7.15;100.00;100803.63;5567076;32;34537;-70
2023/01/07 15:24:57;;;;;;;;;;;;;;;7.21;100.00;100803.06;5567884;32;35626;-70
2023/01/07 15:28:16;;;;;;;;;;;;;;;7.01;100.00;100805.81;5556490;32;35444;-70
2023/01/07 15:31:27;;;;;;;;;;;;;;;7.00;100.00;100802.34;5553716;32;36728;-70
2023/01/07 15:34:37;;;;;;;;;;;;;;;6.99;100.00;100806.78;5553749;32;34373;-71
2023/01/07 15:37:45;;;;;;;;;;;;;;;7.00;100.00;100818.16;5555923;32;33067;-70
2023/01/07 15:40:53;;;;;;;;;;;;;;;6.90;100.00;100817.31;5554227;32;34907;-69
2023/01/07 15:43:59;;;;;;;;;;;;;;;6.67;100.00;100811.38;5567390;32;33001;-70
2023/01/07 15:47:05;;;;;;;;;;;;;;;6.56;100.00;100816.75;5568055;32;34016;-70
2023/01/07 15:50:17;;;;;;;;;;;;;;;6.52;100.00;100818.81;5568284;32;34031;-70
2023/01/07 15:53:24;;;;;;;;;;;;;;;6.40;100.00;100811.94;5567626;32;34899;-71
2023/01/07 15:56:31;;;;;;;;;;;;;;;6.40;100.00;100819.00;5554245;32;34049;-71
2023/01/07 15:59:42;;;;;;;;;;;;;;;6.22;100.00;100826.69;5541621;32;32908;-72
2023/01/07 16:02:47;;;;;;;;;;;;;;;6.05;100.00;100824.63;5553631;32;33153;-71
2023/01/07 16:05:58;;;;;;;;;;;;;;;6.12;100.00;100829.25;5568274;32;34300;-71
2023/01/07 16:09:19;;;;;;;;;;;;;;;6.19;100.00;100828.75;5553981;32;33058;-71
2023/01/07 16:12:35;;;;;;;;;;;;;;;6.16;100.00;100836.87;5529266;32;34165;-71
2023/01/07 16:15:41;;;;;;;;;;;;;;;6.24;100.00;100840.56;5528474;32;34597;-71
2023/01/07 16:18:55;;;;;;;;;;;;;;;6.25;100.00;100834.31;5533486;32;34600;-70
2023/01/07 16:22:02;;;;;;;;;;;;;;;6.36;100.00;100828.97;5535092;32;33073;-70
2023/01/07 16:25:16;;;;;;;;;;;;;;;6.30;100.00;100834.75;5534813;32;34571;-69
2023/01/07 16:28:30;;;;;;;;;;;;;;;6.22;100.00;100836.38;5544038;32;33986;-70
2023/01/07 16:31:37;;;;;;;;;;;;;;;6.19;100.00;100840.13;5547403;32;34166;-69